This is the latest recevied weather packets stored in our database for station/object VK3ANZ. If no packets are shown the sender has not sent any weather packets the latest 10 day(s).
| Time | Temp. | Humidity | Pressure | Rain* | Wind** | Luminosity | Snow |
|---|---|---|---|---|---|---|---|
| 1777911924 | 12.78° C | 35% | 1016.4 hPa | 0 mm | - | 0 W/m² | - |
| 1777911337 | 12.78° C | 35% | 1016.4 hPa | 0 mm | - | 0 W/m² | - |
| 1777903524 | 13.33° C | 34% | 1015.4 hPa | 0 mm | - | 0 W/m² | - |
| 1777902323 | 13.33° C | 34% | 1015.4 hPa | 0 mm | - | 0 W/m² | - |
| 1777901751 | 13.33° C | 34% | 1015.3 hPa | 0 mm | - | 0 W/m² | - |
| 1777893922 | 13.89° C | 32% | 1014.4 hPa | 0 mm | - | 0 W/m² | - |
| 1777892726 | 13.89° C | 33% | 1014.3 hPa | 0 mm | - | 0 W/m² | - |
| 1777890322 | 13.33° C | 37% | 1013.8 hPa | 0 mm | - | 0 W/m² | - |
| 1777888526 | 13.33° C | 37% | 1013.4 hPa | 0 mm | - | 0 W/m² | - |
| 1777885562 | 13.33° C | 36% | 1013.3 hPa | 0 mm | - | 0 W/m² | - |
| 1777880126 | 15° C | 26% | 1012.2 hPa | 0 mm | - | 0 W/m² | - |
| 1777878322 | 16.11° C | 24% | 1011.9 hPa | 0 mm | - | 4 W/m² | - |
| 1777870530 | 17.78° C | 20% | 1011.4 hPa | 0 mm | - | 83 W/m² | - |
| 1777868721 | 17.78° C | 22% | 1011.4 hPa | 0 mm | - | 115 W/m² | - |
| 1777868129 | 17.78° C | 21% | 1011.5 hPa | 0 mm | - | 94 W/m² | - |
| 1777862129 | 17.78° C | 22% | 1012.1 hPa | 0 mm | - | 250 W/m² | - |
| 1777859750 | 17.22° C | 23% | 1012.4 hPa | 0 mm | - | 307 W/m² | - |
| 1777858530 | 17.22° C | 22% | 1012.5 hPa | 0 mm | - | 334 W/m² | - |
| 1777857921 | 16.67° C | 22% | 1012.7 hPa | 0 mm | - | 317 W/m² | - |
| 1777856768 | 17.22° C | 25% | 1012.8 hPa | 0 mm | - | 109 W/m² | - |
| 1777853141 | 16.67° C | 27% | 1012.9 hPa | 0 mm | - | 317 W/m² | - |
| 1777851329 | 16.11° C | 29% | 1013.2 hPa | 0 mm | - | 278 W/m² | - |
| 1777848929 | 15° C | 30% | 1013.3 hPa | 0 mm | - | 242 W/m² | - |
| 1777839920 | 12.22° C | 42% | 1012.8 hPa | 0 mm | - | 0 W/m² | - |
| 1777833946 | 10.56° C | 80% | 1013.2 hPa | 0 mm | - | 0 W/m² | - |
* Rain latest hour (hover to see other rain measurements)
** Current wind speed in m/s (hover to see current wind gust speed)